Hovedside
METAR-TAF:

METAR-TAF

Lufthavner :

Šiauliai, Litauen

breddegrad: 55-53-38N, lengdegrad: 023-23-42E, høyde over havet: 135 m

Gjeldene værobservasjon

Denne rapporten ble laget for 34 minutter siden, klokken 04:20 UTC
Vind 9 kt fra Sør
Temperatur 6°C
Luftfuktighet 87%
Trykk 1021 hPa
Sikt 10 km eller mer
ingen skyer under 1500 m og ingen bygeskyer

METAR: EYSA 160420Z 19009KT CAVOK 06/04 Q1021 BLU NOSIG

Tid: 07:54 (04:54 UTC)

Varsel

Denne rapporten ble laget for 2 timer og 54 minutter siden, klokken 02:00 UTC
Varsel gyldig fra 16. klokken 03 UTC til 16. klokken 12 UTC
Vind 10 kt fra Sør
Sikt 10 km eller mer
ingen skyer under 1500 m og ingen bygeskyer

TAF: EYSA 160200Z 1603/1612 19010KT CAVOK

Værobservasjoner og værvarsel for over 4000 flyplasser (METAR- og TAF-rapporter).

Tilgjengelige stasjoner er representert av de røde og gule prikkene på kartet.

Hold musepekeren over prikken for å se navnet på stasjonen.

Klikk så for å se værobservasjoner og -varsler.

For å forandre kartet kan du klikke på den grønne knappen med svart kryss for å zoome inn, på den grønne knappen med strek for å zoome ut, eller på de grønne pilene for å se tilstøtende kart.


METAR-TAF: